createdAt,value
2023-01-12T00:00:23.323Z,5.30
2023-01-12T00:01:16.740Z,5.10
2023-01-12T00:01:50.444Z,5.10
2023-01-12T00:02:23.967Z,5.30
2023-01-12T00:02:57.544Z,5.60
2023-01-12T00:03:31.192Z,5.70
2023-01-12T00:04:13.423Z,5.30
2023-01-12T00:04:46.831Z,5.60
2023-01-12T00:05:20.173Z,5.70
2023-01-12T00:05:58.966Z,5.50
2023-01-12T00:06:32.775Z,5.60
2023-01-12T00:07:11.134Z,5.50
2023-01-12T00:07:44.556Z,6.00
2023-01-12T00:08:18.121Z,6.30
2023-01-12T00:08:53.227Z,5.90
2023-01-12T00:09:27.166Z,5.60
2023-01-12T00:10:00.775Z,5.60
2023-01-12T00:10:34.170Z,5.70
2023-01-12T00:11:07.964Z,5.70
2023-01-12T00:11:41.417Z,5.40
2023-01-12T00:12:14.981Z,6.00
2023-01-12T00:12:48.397Z,6.20
2023-01-12T00:13:21.855Z,5.90
2023-01-12T00:13:55.463Z,6.30
2023-01-12T00:14:29.553Z,6.40
2023-01-12T00:15:02.966Z,5.90
2023-01-12T00:15:56.490Z,6.10
2023-01-12T00:16:35.969Z,5.30
2023-01-12T00:17:12.055Z,5.20
2023-01-12T00:17:45.709Z,5.70
2023-01-12T00:18:19.174Z,5.50
2023-01-12T00:18:52.699Z,5.40
2023-01-12T00:19:26.216Z,5.50
2023-01-12T00:19:59.668Z,5.20
2023-01-12T00:20:33.298Z,5.10
2023-01-12T00:21:07.993Z,5.10
2023-01-12T00:22:14.846Z,5.40
2023-01-12T00:22:49.904Z,4.80
2023-01-12T00:23:25.257Z,5.60
2023-01-12T00:23:58.620Z,4.50
2023-01-12T00:24:37.663Z,4.80
2023-01-12T00:25:11.121Z,5.00
2023-01-12T00:25:51.259Z,5.00
2023-01-12T00:26:24.749Z,4.80
2023-01-12T00:26:59.820Z,4.80
2023-01-12T00:27:33.414Z,5.00
2023-01-12T00:28:06.797Z,4.70
2023-01-12T00:28:40.267Z,4.60
2023-01-12T00:29:14.371Z,4.80
2023-01-12T00:29:48.700Z,4.80
2023-01-12T00:30:22.169Z,4.40
2023-01-12T00:31:08.278Z,4.30
2023-01-12T00:31:41.688Z,4.20
2023-01-12T00:32:17.705Z,4.30
2023-01-12T00:32:51.066Z,4.40
2023-01-12T00:33:24.477Z,4.20
2023-01-12T00:33:57.886Z,4.80
2023-01-12T00:34:31.462Z,4.60
2023-01-12T00:35:05.236Z,4.90
2023-01-12T00:35:38.579Z,4.70
2023-01-12T00:36:20.312Z,4.10
2023-01-12T00:36:54.275Z,4.80
2023-01-12T00:37:27.719Z,4.40
2023-01-12T00:38:01.953Z,4.40
2023-01-12T00:38:36.886Z,4.60
2023-01-12T00:39:10.596Z,4.10
2023-01-12T00:39:53.107Z,4.10
2023-01-12T00:40:36.679Z,4.10
2023-01-12T00:41:12.249Z,4.40
2023-01-12T00:42:04.807Z,3.60
2023-01-12T00:42:56.830Z,3.40
2023-01-12T00:43:48.657Z,3.50
2023-01-12T00:44:41.095Z,3.60
2023-01-12T00:45:24.415Z,3.20
2023-01-12T00:45:58.073Z,2.80
2023-01-12T00:46:33.226Z,3.80
2023-01-12T00:47:07.798Z,3.90
2023-01-12T00:47:43.473Z,3.40
2023-01-12T00:48:17.084Z,3.60
2023-01-12T00:48:50.607Z,3.80
2023-01-12T00:49:25.800Z,3.40
2023-01-12T00:49:59.417Z,3.60
2023-01-12T00:50:32.975Z,3.30
2023-01-12T00:51:06.492Z,3.40
2023-01-12T00:51:39.953Z,3.00
2023-01-12T00:52:29.993Z,3.40
2023-01-12T00:53:40.353Z,2.60
2023-01-12T00:54:14.038Z,2.90
2023-01-12T00:54:47.952Z,3.20
2023-01-12T00:55:21.996Z,3.10
2023-01-12T00:56:01.513Z,2.90
2023-01-12T00:56:36.625Z,3.40
2023-01-12T00:57:13.801Z,2.60
2023-01-12T00:57:47.590Z,2.50
2023-01-12T00:58:21.312Z,2.90
2023-01-12T00:58:54.763Z,2.70
2023-01-12T00:59:28.856Z,3.00
2023-01-12T01:00:02.356Z,3.00
2023-01-12T01:00:35.831Z,3.20
2023-01-12T01:01:09.603Z,3.20
2023-01-12T01:01:43.209Z,3.00
2023-01-12T01:02:16.810Z,2.90
2023-01-12T01:02:50.431Z,2.80
2023-01-12T01:03:23.900Z,2.80
2023-01-12T01:03:57.382Z,3.00
2023-01-12T01:04:30.739Z,3.20
2023-01-12T01:05:04.339Z,3.20
2023-01-12T01:05:37.823Z,2.80
2023-01-12T01:06:11.326Z,3.30
2023-01-12T01:06:45.086Z,3.00
2023-01-12T01:07:21.797Z,3.20
2023-01-12T01:07:55.301Z,3.50
2023-01-12T01:08:28.766Z,2.90
2023-01-12T01:09:02.224Z,3.20
2023-01-12T01:09:38.230Z,2.80
2023-01-12T01:10:13.405Z,3.00
2023-01-12T01:10:47.031Z,3.50
2023-01-12T01:11:20.474Z,3.40
2023-01-12T01:11:53.904Z,2.30
2023-01-12T01:12:27.346Z,3.50
2023-01-12T01:13:00.748Z,2.60
2023-01-12T01:13:41.906Z,3.10
2023-01-12T01:14:18.963Z,3.00
2023-01-12T01:14:54.051Z,3.20
2023-01-12T01:15:27.450Z,3.30
2023-01-12T01:16:01.871Z,3.10
2023-01-12T01:16:35.869Z,3.40
2023-01-12T01:17:09.314Z,3.00
2023-01-12T01:17:44.042Z,3.10
2023-01-12T01:18:17.474Z,3.00
2023-01-12T01:18:51.358Z,3.00
2023-01-12T01:19:25.484Z,3.30
2023-01-12T01:19:58.907Z,3.10
2023-01-12T01:20:36.697Z,3.10
2023-01-12T01:21:11.911Z,3.70
2023-01-12T01:21:45.699Z,3.30
2023-01-12T01:22:19.116Z,3.50
2023-01-12T01:22:52.480Z,3.60
2023-01-12T01:23:27.944Z,3.40
2023-01-12T01:24:01.570Z,3.60
2023-01-12T01:24:34.968Z,3.30
2023-01-12T01:25:08.809Z,3.50
2023-01-12T01:25:42.118Z,3.30
2023-01-12T01:26:19.237Z,3.40
2023-01-12T01:26:52.748Z,3.10
2023-01-12T01:27:26.231Z,3.40
2023-01-12T01:27:59.577Z,3.40
2023-01-12T01:28:33.423Z,3.40
2023-01-12T01:29:07.411Z,3.10
2023-01-12T01:29:40.892Z,3.00
2023-01-12T01:30:14.660Z,3.10
2023-01-12T01:30:48.858Z,3.40
2023-01-12T01:31:24.577Z,3.20
2023-01-12T01:31:57.993Z,3.00
2023-01-12T01:32:31.382Z,3.00
2023-01-12T01:33:04.705Z,2.80
2023-01-12T01:33:39.006Z,2.80
2023-01-12T01:34:12.450Z,3.10
2023-01-12T01:34:47.296Z,3.00
2023-01-12T01:35:20.595Z,3.10
2023-01-12T01:35:53.916Z,2.60
2023-01-12T01:36:27.291Z,3.20
2023-01-12T01:37:00.761Z,3.10
2023-01-12T01:37:34.247Z,2.80
2023-01-12T01:38:07.604Z,3.20
2023-01-12T01:38:43.649Z,2.80
2023-01-12T01:39:16.995Z,2.90
2023-01-12T01:39:50.387Z,2.80
2023-01-12T01:40:24.433Z,3.00
2023-01-12T01:40:58.159Z,2.90
2023-01-12T01:41:33.174Z,2.60
2023-01-12T01:42:28.372Z,3.10
2023-01-12T01:43:03.131Z,2.50
2023-01-12T01:43:50.485Z,2.30
2023-01-12T01:44:29.647Z,2.50
2023-01-12T01:45:06.290Z,3.10
2023-01-12T01:45:39.663Z,2.80
2023-01-12T01:46:17.231Z,2.90
2023-01-12T01:46:59.791Z,1.80
2023-01-12T01:47:41.343Z,2.20
2023-01-12T01:48:17.946Z,2.30
2023-01-12T01:48:52.402Z,2.80
2023-01-12T01:49:28.791Z,2.40
2023-01-12T01:50:06.288Z,2.70
2023-01-12T01:50:43.437Z,2.70
2023-01-12T01:51:17.538Z,3.10
2023-01-12T01:51:54.209Z,2.70
2023-01-12T01:52:33.240Z,3.00
2023-01-12T01:53:18.729Z,2.20
2023-01-12T01:53:52.119Z,2.30
2023-01-12T01:54:25.694Z,2.50
2023-01-12T01:55:14.830Z,2.80
2023-01-12T01:55:55.061Z,2.40
2023-01-12T01:56:31.800Z,2.10
2023-01-12T01:57:06.638Z,2.50
2023-01-12T01:58:05.957Z,2.80
2023-01-12T01:58:43.447Z,2.40
2023-01-12T01:59:23.274Z,2.30
2023-01-12T01:59:58.551Z,2.90
2023-01-12T02:00:32.165Z,2.50
2023-01-12T02:01:06.671Z,2.40
2023-01-12T02:01:40.250Z,2.50
2023-01-12T02:02:14.662Z,2.40
2023-01-12T02:02:48.662Z,2.50
2023-01-12T02:03:22.216Z,2.70
2023-01-12T02:03:56.850Z,2.40
2023-01-12T02:04:31.037Z,2.60
2023-01-12T02:05:04.717Z,2.70
2023-01-12T02:05:42.151Z,2.10
2023-01-12T02:06:15.701Z,2.80
2023-01-12T02:06:50.211Z,2.70
2023-01-12T02:07:24.005Z,2.60
2023-01-12T02:08:04.774Z,2.70
2023-01-12T02:08:55.868Z,2.80
2023-01-12T02:10:04.917Z,2.40
2023-01-12T02:10:39.103Z,2.60
2023-01-12T02:11:34.334Z,2.20
2023-01-12T02:12:27.089Z,2.20
2023-01-12T02:13:19.536Z,2.40
2023-01-12T02:14:11.717Z,2.50
2023-01-12T02:15:08.820Z,2.50
2023-01-12T02:16:12.867Z,1.90
2023-01-12T02:17:21.435Z,2.40
2023-01-12T02:18:01.817Z,2.10
2023-01-12T02:18:46.291Z,2.30
2023-01-12T02:19:42.322Z,2.20
2023-01-12T02:20:46.658Z,2.60
2023-01-12T02:21:26.178Z,2.50
2023-01-12T02:22:30.152Z,2.30
2023-01-12T02:23:41.075Z,3.20
2023-01-12T02:24:45.445Z,2.40
2023-01-12T02:25:27.780Z,2.30
2023-01-12T02:26:26.906Z,2.50
2023-01-12T02:27:45.931Z,2.30
2023-01-12T02:28:25.432Z,3.00
2023-01-12T02:29:10.875Z,2.40
2023-01-12T02:29:50.615Z,1.90
2023-01-12T02:30:52.414Z,2.90
2023-01-12T02:32:13.590Z,2.60
2023-01-12T02:33:18.673Z,2.50
2023-01-12T02:33:57.900Z,2.30
2023-01-12T02:34:44.798Z,2.40
2023-01-12T02:35:45.360Z,2.50
2023-01-12T02:36:37.684Z,2.50
2023-01-12T02:37:11.161Z,2.30
2023-01-12T02:38:23.605Z,2.70
2023-01-12T02:39:17.203Z,2.30
2023-01-12T02:40:00.129Z,2.60
2023-01-12T02:41:02.711Z,2.80
2023-01-12T02:42:06.358Z,1.80
2023-01-12T02:42:56.217Z,2.80
2023-01-12T02:43:31.525Z,2.40
2023-01-12T02:44:06.622Z,2.80
2023-01-12T02:44:53.697Z,2.70
2023-01-12T02:45:36.906Z,3.10
2023-01-12T02:46:32.395Z,2.70
2023-01-12T02:47:10.873Z,2.60
2023-01-12T02:47:48.656Z,3.20
2023-01-12T02:48:42.680Z,3.20
2023-01-12T02:51:55.191Z,2.40
2023-01-12T02:52:33.107Z,2.50
2023-01-12T02:53:27.938Z,2.90
2023-01-12T02:54:06.559Z,2.80
2023-01-12T02:54:43.326Z,2.80
2023-01-12T02:55:19.080Z,2.50
2023-01-12T02:55:53.385Z,2.80
2023-01-12T02:56:36.655Z,3.20
2023-01-12T02:57:11.219Z,3.10
2023-01-12T02:57:49.321Z,2.80
2023-01-12T02:58:25.288Z,2.80
2023-01-12T02:59:02.666Z,3.00
2023-01-12T02:59:41.421Z,2.60
2023-01-12T03:00:38.428Z,3.50
2023-01-12T03:01:14.401Z,2.70
2023-01-12T03:01:51.400Z,3.10
2023-01-12T03:02:27.766Z,3.30
2023-01-12T03:03:01.180Z,3.10
2023-01-12T03:03:35.368Z,3.20
2023-01-12T03:04:11.146Z,3.40
2023-01-12T03:04:44.637Z,3.10
2023-01-12T03:05:18.095Z,2.90
2023-01-12T03:05:52.075Z,3.10
2023-01-12T03:06:25.531Z,3.20
2023-01-12T03:06:58.928Z,2.70
2023-01-12T03:07:33.354Z,3.70
2023-01-12T03:08:09.761Z,3.10
2023-01-12T03:08:45.027Z,2.60
2023-01-12T03:09:19.415Z,2.30
2023-01-12T03:09:58.657Z,2.20
2023-01-12T03:10:42.258Z,2.50
2023-01-12T03:11:22.058Z,2.80
2023-01-12T03:12:06.529Z,2.70
2023-01-12T03:12:42.140Z,3.20
2023-01-12T03:13:17.113Z,2.90
2023-01-12T03:14:01.106Z,2.50
2023-01-12T03:14:37.771Z,2.40
2023-01-12T03:15:14.767Z,2.30
2023-01-12T03:15:53.204Z,2.70
2023-01-12T03:16:32.712Z,2.50
2023-01-12T03:17:12.341Z,2.60
2023-01-12T03:17:59.863Z,2.60
2023-01-12T03:18:45.209Z,2.20
2023-01-12T03:19:24.955Z,2.60
2023-01-12T03:20:23.415Z,2.40
2023-01-12T03:21:03.856Z,2.80
2023-01-12T03:21:40.783Z,2.40
2023-01-12T03:22:17.276Z,2.20
2023-01-12T03:22:55.728Z,2.90
2023-01-12T03:23:45.342Z,2.60
2023-01-12T03:24:25.798Z,3.00
2023-01-12T03:25:02.734Z,2.30
2023-01-12T03:25:37.301Z,2.90
2023-01-12T03:26:12.627Z,2.70
2023-01-12T03:26:54.933Z,2.70
2023-01-12T03:27:38.690Z,2.70
2023-01-12T03:28:16.566Z,2.50
2023-01-12T03:28:55.579Z,3.00
2023-01-12T03:29:34.942Z,2.70
2023-01-12T03:30:15.041Z,2.40
2023-01-12T03:31:00.374Z,2.90
2023-01-12T03:31:34.226Z,2.30
2023-01-12T03:32:07.818Z,2.60
2023-01-12T03:32:41.847Z,2.60
2023-01-12T03:33:15.453Z,2.60
2023-01-12T03:33:48.933Z,2.60
2023-01-12T03:34:22.803Z,2.50
2023-01-12T03:34:56.117Z,2.60
2023-01-12T03:35:36.257Z,2.90
2023-01-12T03:36:12.336Z,2.70
2023-01-12T03:37:07.121Z,2.70
2023-01-12T03:38:03.600Z,3.40
2023-01-12T03:39:01.450Z,2.50
2023-01-12T03:39:40.588Z,2.60
2023-01-12T03:40:28.147Z,2.50
2023-01-12T03:41:12.235Z,2.70
2023-01-12T03:41:59.662Z,2.70
2023-01-12T03:43:01.214Z,2.60
2023-01-12T03:44:28.540Z,2.00
2023-01-12T03:45:27.200Z,2.60
2023-01-12T03:46:14.530Z,2.30
2023-01-12T03:46:56.470Z,2.80
2023-01-12T03:47:32.601Z,2.70
2023-01-12T03:48:47.997Z,3.20
2023-01-12T03:49:30.311Z,2.60
2023-01-12T03:50:07.545Z,2.30
2023-01-12T03:50:53.274Z,2.30
2023-01-12T03:51:32.611Z,2.20
2023-01-12T03:52:09.053Z,2.60
2023-01-12T03:52:45.478Z,2.40
2023-01-12T03:53:22.024Z,2.50
2023-01-12T03:53:57.497Z,2.50
2023-01-12T03:54:32.604Z,2.60
2023-01-12T03:55:09.568Z,2.50
2023-01-12T03:55:45.289Z,2.70
2023-01-12T03:56:21.616Z,2.60
2023-01-12T03:56:56.577Z,2.50
2023-01-12T03:57:30.382Z,2.50
2023-01-12T03:58:04.801Z,2.60
2023-01-12T03:58:38.309Z,2.70
2023-01-12T03:59:11.911Z,2.70
2023-01-12T03:59:45.295Z,2.90
2023-01-12T04:00:21.495Z,2.40
2023-01-12T04:00:55.161Z,2.80
2023-01-12T04:01:28.963Z,2.80
2023-01-12T04:02:03.463Z,2.80
2023-01-12T04:02:37.225Z,2.60
2023-01-12T04:03:13.566Z,2.60
2023-01-12T04:03:47.287Z,3.30
2023-01-12T04:04:20.617Z,2.90
2023-01-12T04:04:53.988Z,2.60
2023-01-12T04:05:27.508Z,2.80
2023-01-12T04:06:01.050Z,2.60
2023-01-12T04:06:34.539Z,3.00
2023-01-12T04:07:07.975Z,2.70
2023-01-12T04:07:41.688Z,2.80
2023-01-12T04:08:16.713Z,2.50
2023-01-12T04:08:51.721Z,3.00
2023-01-12T04:09:26.105Z,2.70
2023-01-12T04:09:59.457Z,2.70
2023-01-12T04:10:32.922Z,2.70
2023-01-12T04:11:26.262Z,2.90
2023-01-12T04:12:11.975Z,2.30
2023-01-12T04:12:45.601Z,2.50
2023-01-12T04:13:19.124Z,2.70
2023-01-12T04:13:52.787Z,2.40
2023-01-12T04:14:26.264Z,2.50
2023-01-12T04:14:59.605Z,2.60
2023-01-12T04:15:38.114Z,2.40
2023-01-12T04:16:11.539Z,2.30
2023-01-12T04:16:44.914Z,2.60
2023-01-12T04:17:19.296Z,2.80
2023-01-12T04:17:52.830Z,2.50
2023-01-12T04:18:26.170Z,2.50
2023-01-12T04:18:59.525Z,2.40
2023-01-12T04:19:33.039Z,2.30
2023-01-12T04:20:06.798Z,2.40
2023-01-12T04:20:40.785Z,2.70
2023-01-12T04:21:32.723Z,2.40
2023-01-12T04:22:25.577Z,2.50
2023-01-12T04:22:59.275Z,2.20
2023-01-12T04:23:32.856Z,2.10
2023-01-12T04:24:06.492Z,2.40
2023-01-12T04:24:39.847Z,2.50
2023-01-12T04:25:16.067Z,2.60
2023-01-12T04:25:49.376Z,2.20
2023-01-12T04:26:23.033Z,2.30
2023-01-12T04:26:56.344Z,2.10
2023-01-12T04:27:30.112Z,2.40
2023-01-12T04:28:03.934Z,2.30
2023-01-12T04:28:37.206Z,2.30
2023-01-12T04:29:10.674Z,2.10
2023-01-12T04:29:45.281Z,2.10
2023-01-12T04:30:23.074Z,2.10
2023-01-12T04:30:56.533Z,2.20
2023-01-12T04:31:30.092Z,2.30
2023-01-12T04:32:04.887Z,2.40
2023-01-12T04:32:38.643Z,2.10
2023-01-12T04:33:12.118Z,2.20
2023-01-12T04:33:45.596Z,2.30
2023-01-12T04:34:20.002Z,2.40
2023-01-12T04:34:53.496Z,2.20
2023-01-12T04:35:27.897Z,2.20
2023-01-12T04:36:01.218Z,2.20
2023-01-12T04:36:34.744Z,2.50
2023-01-12T04:37:08.175Z,2.20
2023-01-12T04:37:41.769Z,2.20
2023-01-12T04:38:16.963Z,2.50
2023-01-12T04:38:50.374Z,2.30
2023-01-12T04:39:23.787Z,2.20
2023-01-12T04:39:57.270Z,2.30
2023-01-12T04:40:30.708Z,1.90
2023-01-12T04:41:05.015Z,2.10
2023-01-12T04:41:38.365Z,2.20
2023-01-12T04:42:33.576Z,2.40
2023-01-12T04:43:08.880Z,2.40
2023-01-12T04:43:42.400Z,2.30
2023-01-12T04:44:15.850Z,2.40
2023-01-12T04:44:49.193Z,2.50
2023-01-12T04:45:23.040Z,2.40
2023-01-12T04:45:56.560Z,2.30
2023-01-12T04:46:30.040Z,2.40
2023-01-12T04:47:03.435Z,2.30
2023-01-12T04:47:36.894Z,2.20
2023-01-12T04:48:12.402Z,2.40
2023-01-12T04:48:46.000Z,2.20
2023-01-12T04:49:19.556Z,2.60
2023-01-12T04:49:53.243Z,2.60
2023-01-12T04:50:26.698Z,2.50
2023-01-12T04:51:01.388Z,2.40
2023-01-12T04:51:35.165Z,2.40
2023-01-12T04:52:08.627Z,2.30
2023-01-12T04:52:42.044Z,2.50
2023-01-12T04:53:15.664Z,2.30
2023-01-12T04:53:56.208Z,2.50
2023-01-12T04:54:29.494Z,2.40
2023-01-12T04:55:04.376Z,2.50
2023-01-12T04:55:39.380Z,2.30
2023-01-12T04:56:12.693Z,2.50
2023-01-12T04:56:45.995Z,2.20
2023-01-12T04:57:19.331Z,2.40
2023-01-12T04:57:52.821Z,2.60
2023-01-12T04:58:26.098Z,2.20
2023-01-12T04:59:01.416Z,2.30
2023-01-12T04:59:34.756Z,2.40
2023-01-12T05:00:10.102Z,2.00
2023-01-12T05:00:43.712Z,2.30
2023-01-12T05:01:19.471Z,2.30
2023-01-12T05:01:53.019Z,2.30
2023-01-12T05:02:28.238Z,2.30
2023-01-12T05:03:02.591Z,2.20
2023-01-12T05:03:36.159Z,2.20
2023-01-12T05:04:09.620Z,2.50
2023-01-12T05:04:43.094Z,2.00
2023-01-12T05:05:16.868Z,1.90
2023-01-12T05:05:50.161Z,2.30
2023-01-12T05:06:24.453Z,2.50
2023-01-12T05:06:57.872Z,2.20
2023-01-12T05:07:31.765Z,2.10
2023-01-12T05:08:25.538Z,2.20
2023-01-12T05:09:19.867Z,2.20
2023-01-12T05:10:12.287Z,2.10
2023-01-12T05:10:54.950Z,2.20
2023-01-12T05:11:29.659Z,2.20
2023-01-12T05:12:03.402Z,2.20
2023-01-12T05:12:36.818Z,2.40
2023-01-12T05:13:10.201Z,2.50
2023-01-12T05:13:43.608Z,2.20
2023-01-12T05:14:17.061Z,2.20
2023-01-12T05:14:50.967Z,2.60
2023-01-12T05:15:24.391Z,2.20
2023-01-12T05:15:57.917Z,2.50
2023-01-12T05:16:31.858Z,2.40
2023-01-12T05:17:05.596Z,2.30
2023-01-12T05:17:38.933Z,2.30
2023-01-12T05:18:12.338Z,2.60
2023-01-12T05:18:46.280Z,2.30
2023-01-12T05:19:19.836Z,2.50
2023-01-12T05:19:53.405Z,2.60
2023-01-12T05:20:26.935Z,3.10
2023-01-12T05:21:00.369Z,2.80
2023-01-12T05:21:33.977Z,3.00
2023-01-12T05:22:07.610Z,2.60
2023-01-12T05:22:40.988Z,2.80
2023-01-12T05:23:14.410Z,2.70
2023-01-12T05:23:48.398Z,2.80
2023-01-12T05:24:21.813Z,3.10
2023-01-12T05:24:55.151Z,3.10
2023-01-12T05:25:29.600Z,2.90
2023-01-12T05:26:05.577Z,3.30
2023-01-12T05:26:39.012Z,3.10
2023-01-12T05:27:12.518Z,3.00
2023-01-12T05:27:45.916Z,3.00
2023-01-12T05:28:19.257Z,3.00
2023-01-12T05:28:52.574Z,3.20
2023-01-12T05:29:25.968Z,2.90
2023-01-12T05:29:59.915Z,2.80
2023-01-12T05:30:33.653Z,2.80
2023-01-12T05:31:12.418Z,2.70
2023-01-12T05:31:45.779Z,3.00
2023-01-12T05:32:19.294Z,2.80
2023-01-12T05:32:52.761Z,3.10
2023-01-12T05:33:26.212Z,2.70
2023-01-12T05:33:59.551Z,3.20
2023-01-12T05:34:35.800Z,2.80
2023-01-12T05:35:09.725Z,2.80
2023-01-12T05:35:43.138Z,2.90
2023-01-12T05:36:17.621Z,3.00
2023-01-12T05:36:50.999Z,2.60
2023-01-12T05:37:24.554Z,2.70
2023-01-12T05:37:57.913Z,2.90
2023-01-12T05:38:31.580Z,2.90
2023-01-12T05:39:05.773Z,2.70
2023-01-12T05:39:39.109Z,2.90
2023-01-12T05:40:13.084Z,2.90
2023-01-12T05:40:46.485Z,2.90
2023-01-12T05:41:19.949Z,2.80
2023-01-12T05:42:12.337Z,2.80
2023-01-12T05:43:04.339Z,2.60
2023-01-12T05:43:53.215Z,2.70
2023-01-12T05:44:26.835Z,2.70
2023-01-12T05:45:00.236Z,2.80
2023-01-12T05:45:34.251Z,2.90
2023-01-12T05:46:08.225Z,2.90
2023-01-12T05:46:41.666Z,3.00
2023-01-12T05:47:15.114Z,3.00
2023-01-12T05:47:56.246Z,3.30
2023-01-12T05:49:03.700Z,2.50
2023-01-12T05:49:37.168Z,2.90
2023-01-12T05:50:11.266Z,2.80
2023-01-12T05:50:44.650Z,2.90
2023-01-12T05:51:19.687Z,2.90
2023-01-12T05:51:53.146Z,2.50
2023-01-12T05:52:26.516Z,2.60
2023-01-12T05:53:00.026Z,3.20
2023-01-12T05:53:34.210Z,2.60
2023-01-12T05:54:07.674Z,2.70
2023-01-12T05:54:41.025Z,2.80
2023-01-12T05:55:14.449Z,2.60
2023-01-12T05:55:47.992Z,3.00
2023-01-12T05:56:25.921Z,2.60
2023-01-12T05:56:59.475Z,2.20
2023-01-12T05:57:33.314Z,2.60
2023-01-12T05:58:06.982Z,2.80
2023-01-12T05:58:40.525Z,2.50
2023-01-12T05:59:13.960Z,2.40
2023-01-12T05:59:47.393Z,2.50
2023-01-12T06:00:21.023Z,2.40
2023-01-12T06:00:54.393Z,2.40
2023-01-12T06:01:29.614Z,2.50
2023-01-12T06:02:03.248Z,2.70
2023-01-12T06:02:36.719Z,2.50
2023-01-12T06:03:10.210Z,2.50
2023-01-12T06:03:43.580Z,2.60
2023-01-12T06:04:16.996Z,2.60
2023-01-12T06:04:50.503Z,2.90
2023-01-12T06:05:23.917Z,2.60
2023-01-12T06:06:00.524Z,2.70
2023-01-12T06:06:34.191Z,2.70
2023-01-12T06:07:07.707Z,2.90
2023-01-12T06:07:41.130Z,2.90
2023-01-12T06:08:14.526Z,2.70
2023-01-12T06:08:50.621Z,3.00
2023-01-12T06:09:25.655Z,2.70
2023-01-12T06:09:59.121Z,3.20
2023-01-12T06:10:34.647Z,3.10
2023-01-12T06:11:28.158Z,3.50
2023-01-12T06:12:30.906Z,3.30
2023-01-12T06:13:23.226Z,2.60
2023-01-12T06:13:59.409Z,3.40
2023-01-12T06:14:33.058Z,3.70
2023-01-12T06:15:07.126Z,3.50
2023-01-12T06:15:40.655Z,4.00
2023-01-12T06:16:15.060Z,3.40
2023-01-12T06:16:48.544Z,3.60
2023-01-12T06:17:22.053Z,3.70
2023-01-12T06:17:57.022Z,3.50
2023-01-12T06:18:33.757Z,3.30
2023-01-12T06:19:07.355Z,3.80
2023-01-12T06:19:40.941Z,3.40
2023-01-12T06:20:17.406Z,3.80
2023-01-12T06:20:51.955Z,3.80
2023-01-12T06:21:25.933Z,3.50
2023-01-12T06:21:59.890Z,3.30
2023-01-12T06:22:33.767Z,3.50
2023-01-12T06:23:07.391Z,3.50
2023-01-12T06:23:40.920Z,3.40
2023-01-12T06:24:14.481Z,3.40
2023-01-12T06:24:56.844Z,3.00
2023-01-12T06:25:32.959Z,3.20
2023-01-12T06:26:10.549Z,3.20
2023-01-12T06:26:45.447Z,2.70
2023-01-12T06:27:18.980Z,2.80
2023-01-12T06:27:52.362Z,3.00
2023-01-12T06:28:25.697Z,3.10
2023-01-12T06:28:59.109Z,2.90
2023-01-12T06:29:32.749Z,3.10
2023-01-12T06:30:07.950Z,3.10
2023-01-12T06:30:41.489Z,3.10
2023-01-12T06:31:15.489Z,3.20
2023-01-12T06:31:49.113Z,3.20
2023-01-12T06:32:22.514Z,3.50
2023-01-12T06:32:55.949Z,3.30
2023-01-12T06:33:30.265Z,3.30
2023-01-12T06:34:03.693Z,3.20
2023-01-12T06:34:37.928Z,3.10
2023-01-12T06:35:18.975Z,2.90
2023-01-12T06:35:53.756Z,3.20
2023-01-12T06:36:27.244Z,3.40
2023-01-12T06:37:01.038Z,3.60
2023-01-12T06:37:34.893Z,3.50
2023-01-12T06:38:08.684Z,3.50
2023-01-12T06:38:43.593Z,3.20
2023-01-12T06:39:17.126Z,3.60
2023-01-12T06:39:50.707Z,3.20
2023-01-12T06:40:24.362Z,3.20
2023-01-12T06:41:09.168Z,3.30
2023-01-12T06:42:01.586Z,3.90
2023-01-12T06:42:38.015Z,3.00
2023-01-12T06:43:11.646Z,3.70
2023-01-12T06:43:45.475Z,3.20
2023-01-12T06:44:19.300Z,3.00
2023-01-12T06:44:53.062Z,3.80
2023-01-12T06:45:26.747Z,3.40
2023-01-12T06:46:00.736Z,3.90
2023-01-12T06:46:34.810Z,3.80
2023-01-12T06:47:08.716Z,4.10
2023-01-12T06:47:52.392Z,3.60
2023-01-12T06:48:26.286Z,3.40
2023-01-12T06:49:00.207Z,3.80
2023-01-12T06:49:34.097Z,3.80
2023-01-12T06:50:08.385Z,3.80
2023-01-12T06:50:42.170Z,3.90
2023-01-12T06:51:15.956Z,3.50
2023-01-12T06:51:51.776Z,4.20
2023-01-12T06:52:27.688Z,3.60
2023-01-12T06:53:03.543Z,3.30
2023-01-12T06:53:37.310Z,4.00
2023-01-12T06:54:11.086Z,4.10
2023-01-12T06:54:44.701Z,3.80
2023-01-12T06:55:18.937Z,4.00
2023-01-12T06:55:52.552Z,4.00
2023-01-12T06:56:25.976Z,3.90
2023-01-12T06:56:59.470Z,3.80
2023-01-12T06:57:33.198Z,4.00
2023-01-12T06:58:06.776Z,4.00
2023-01-12T06:58:43.611Z,4.20
2023-01-12T06:59:19.230Z,4.00
2023-01-12T06:59:52.823Z,4.20
2023-01-12T07:00:26.304Z,3.90
2023-01-12T07:01:04.703Z,4.40
2023-01-12T07:01:38.949Z,4.50
2023-01-12T07:02:14.644Z,4.70
2023-01-12T07:02:51.217Z,4.40
2023-01-12T07:03:24.650Z,4.90
2023-01-12T07:03:58.204Z,4.40
2023-01-12T07:04:32.203Z,4.80
2023-01-12T07:05:06.636Z,4.60
2023-01-12T07:05:40.564Z,4.20
2023-01-12T07:06:14.739Z,4.00
2023-01-12T07:06:48.968Z,4.80
2023-01-12T07:07:22.438Z,4.40
2023-01-12T07:08:00.578Z,4.60
2023-01-12T07:08:35.320Z,4.70
2023-01-12T07:09:08.772Z,4.00
2023-01-12T07:09:42.234Z,4.00
2023-01-12T07:10:16.036Z,3.70
2023-01-12T07:10:49.421Z,4.00
2023-01-12T07:11:22.959Z,4.00
2023-01-12T07:11:56.414Z,3.70
2023-01-12T07:12:29.851Z,3.70
2023-01-12T07:13:04.086Z,4.10
2023-01-12T07:13:37.742Z,3.50
2023-01-12T07:14:11.319Z,3.70
2023-01-12T07:14:44.907Z,3.70
2023-01-12T07:15:18.559Z,3.60
2023-01-12T07:15:52.855Z,4.00
2023-01-12T07:16:26.487Z,3.40
2023-01-12T07:17:00.179Z,3.40
2023-01-12T07:17:34.080Z,3.60
2023-01-12T07:18:07.907Z,3.60
2023-01-12T07:18:41.727Z,3.50
2023-01-12T07:19:15.313Z,3.50
2023-01-12T07:19:49.068Z,3.20
2023-01-12T07:20:22.899Z,3.00
2023-01-12T07:20:56.666Z,3.60
2023-01-12T07:21:30.374Z,3.60
2023-01-12T07:22:04.042Z,3.80
2023-01-12T07:22:37.647Z,3.00
2023-01-12T07:23:11.160Z,3.30
2023-01-12T07:23:45.022Z,2.90
2023-01-12T07:24:18.953Z,3.50
2023-01-12T07:24:52.372Z,3.30
2023-01-12T07:25:26.486Z,3.30
2023-01-12T07:25:59.961Z,3.10
2023-01-12T07:26:33.838Z,3.40
2023-01-12T07:27:07.340Z,3.40
2023-01-12T07:27:47.899Z,3.30
2023-01-12T07:28:21.253Z,3.20
2023-01-12T07:28:56.057Z,3.10
2023-01-12T07:29:29.585Z,3.00
2023-01-12T07:30:03.309Z,3.20
2023-01-12T07:30:36.716Z,2.90
2023-01-12T07:31:10.353Z,3.10
2023-01-12T07:31:45.478Z,3.10
2023-01-12T07:32:18.968Z,3.00
2023-01-12T07:32:53.341Z,2.80
2023-01-12T07:33:27.934Z,2.80
2023-01-12T07:34:01.563Z,3.10
2023-01-12T07:34:35.196Z,2.80
2023-01-12T07:35:08.892Z,2.70
2023-01-12T07:35:43.537Z,2.80
2023-01-12T07:36:17.000Z,3.60
2023-01-12T07:36:51.824Z,3.00
2023-01-12T07:37:25.427Z,2.90
2023-01-12T07:37:59.072Z,3.00
2023-01-12T07:38:33.652Z,2.60
2023-01-12T07:39:08.891Z,2.60
2023-01-12T07:39:42.519Z,2.70
2023-01-12T07:40:17.065Z,2.80
2023-01-12T07:40:50.773Z,3.10
2023-01-12T07:41:42.713Z,2.50
2023-01-12T07:42:25.321Z,2.40
2023-01-12T07:43:04.703Z,2.30
2023-01-12T07:43:38.240Z,2.50
2023-01-12T07:44:11.780Z,2.30
2023-01-12T07:44:45.501Z,2.30
2023-01-12T07:45:19.143Z,2.40
2023-01-12T07:45:52.830Z,2.40
2023-01-12T07:46:26.402Z,2.30
2023-01-12T07:47:00.202Z,2.20
2023-01-12T07:47:34.052Z,2.30
2023-01-12T07:48:08.602Z,2.30
2023-01-12T07:48:42.303Z,2.10
2023-01-12T07:49:16.347Z,2.30
2023-01-12T07:49:50.077Z,2.30
2023-01-12T07:50:25.510Z,2.80
2023-01-12T07:50:59.390Z,2.50
2023-01-12T07:51:33.301Z,2.20
2023-01-12T07:52:07.895Z,2.20
2023-01-12T07:52:41.731Z,2.40
2023-01-12T07:53:15.793Z,2.20
2023-01-12T07:53:49.495Z,2.40
2023-01-12T07:54:23.616Z,2.50
2023-01-12T07:55:01.430Z,2.60
2023-01-12T07:55:35.328Z,2.50
2023-01-12T07:56:10.396Z,2.70
2023-01-12T07:56:44.440Z,2.30
2023-01-12T07:57:18.605Z,2.70
2023-01-12T07:57:56.858Z,2.20
2023-01-12T07:58:31.673Z,2.20
2023-01-12T07:59:05.428Z,2.60
2023-01-12T07:59:39.036Z,2.20
2023-01-12T08:00:13.845Z,2.40
2023-01-12T08:00:53.375Z,2.50
2023-01-12T08:01:27.160Z,2.20
2023-01-12T08:02:00.962Z,2.40
2023-01-12T08:02:34.731Z,2.40
2023-01-12T08:03:14.277Z,2.40
2023-01-12T08:03:48.102Z,2.50
2023-01-12T08:04:24.675Z,2.30
2023-01-12T08:04:58.365Z,2.20
2023-01-12T08:05:32.192Z,2.20
2023-01-12T08:06:06.127Z,2.50
2023-01-12T08:06:40.091Z,2.30
2023-01-12T08:07:15.374Z,2.40
2023-01-12T08:07:49.050Z,2.40
2023-01-12T08:08:22.653Z,2.40
2023-01-12T08:08:56.251Z,2.20
2023-01-12T08:09:29.837Z,2.40
2023-01-12T08:10:03.770Z,2.30
2023-01-12T08:10:37.550Z,2.20
2023-01-12T08:11:11.921Z,2.50
2023-01-12T08:11:45.547Z,2.30
2023-01-12T08:12:19.119Z,2.30
2023-01-12T08:12:53.306Z,2.50
2023-01-12T08:13:27.057Z,2.80
2023-01-12T08:14:01.696Z,2.20
2023-01-12T08:14:37.700Z,2.20
2023-01-12T08:15:11.997Z,2.10